createdAt,value
2018-06-22T00:01:10.159Z,47.10
2018-06-22T00:03:38.891Z,47.50
2018-06-22T00:08:35.181Z,46.90
2018-06-22T00:11:02.634Z,47.20
2018-06-22T00:13:31.624Z,47.40
2018-06-22T00:16:00.196Z,47.60
2018-06-22T00:18:27.745Z,47.00
2018-06-22T00:20:55.753Z,46.70
2018-06-22T00:23:23.220Z,46.60
2018-06-22T00:25:50.641Z,47.50
2018-06-22T00:28:18.256Z,47.80
2018-06-22T00:30:47.158Z,47.80
2018-06-22T00:33:15.584Z,47.50
2018-06-22T00:35:43.072Z,47.10
2018-06-22T00:38:10.599Z,47.80
2018-06-22T00:40:38.128Z,46.70
2018-06-22T00:43:05.797Z,46.80
2018-06-22T00:45:33.520Z,46.70
2018-06-22T00:48:01.970Z,47.30
2018-06-22T00:52:56.825Z,47.10
2018-06-22T00:55:24.308Z,47.50
2018-06-22T00:57:51.902Z,47.80
2018-06-22T01:02:47.029Z,48.40
2018-06-22T01:05:14.501Z,49.50
2018-06-22T01:07:42.045Z,48.90
2018-06-22T01:10:10.199Z,48.90
2018-06-22T01:22:27.728Z,49.70
2018-06-22T01:24:55.170Z,49.30
2018-06-22T01:27:22.658Z,49.60
2018-06-22T01:29:51.385Z,49.70
2018-06-22T01:32:19.005Z,50.00
2018-06-22T01:34:46.532Z,49.70
2018-06-22T01:37:14.063Z,49.80
2018-06-22T01:42:09.005Z,49.60
2018-06-22T01:56:54.765Z,49.70
2018-06-22T02:01:49.645Z,50.30
2018-06-22T02:04:17.840Z,50.20
2018-06-22T02:06:46.153Z,48.90
2018-06-22T02:09:14.215Z,49.20
2018-06-22T02:11:41.716Z,49.10
2018-06-22T02:14:10.010Z,49.40
2018-06-22T02:16:37.980Z,49.70
2018-06-22T02:19:06.265Z,49.40
2018-06-22T02:21:34.128Z,50.20
2018-06-22T02:24:01.889Z,49.70
2018-06-22T02:26:29.360Z,49.70
2018-06-22T02:28:57.882Z,49.70
2018-06-22T02:31:25.562Z,49.20
2018-06-22T02:33:53.780Z,49.70
2018-06-22T02:38:48.770Z,49.90
2018-06-22T02:41:16.995Z,50.20
2018-06-22T02:43:45.304Z,50.00
2018-06-22T02:46:12.874Z,50.40
2018-06-22T02:48:41.082Z,50.30
2018-06-22T02:51:09.985Z,50.50
2018-06-22T02:53:38.489Z,51.00
2018-06-22T02:56:06.107Z,50.40
2018-06-22T02:58:33.622Z,50.50
2018-06-22T03:01:01.258Z,50.90
2018-06-22T03:03:29.275Z,50.40
2018-06-22T03:05:56.786Z,50.60
2018-06-22T03:08:24.547Z,51.10
2018-06-22T03:10:52.329Z,50.20
2018-06-22T03:13:20.387Z,50.20
2018-06-22T03:15:48.682Z,50.60
2018-06-22T03:18:16.295Z,50.10
2018-06-22T03:20:45.949Z,50.50
2018-06-22T03:23:13.725Z,51.20
2018-06-22T03:25:41.320Z,50.90
2018-06-22T03:28:09.138Z,50.50
2018-06-22T03:30:36.822Z,50.50
2018-06-22T03:33:04.760Z,49.60
2018-06-22T03:37:59.872Z,51.10
2018-06-22T03:40:28.145Z,50.70
2018-06-22T03:42:56.847Z,51.30
2018-06-22T03:45:24.305Z,50.50
2018-06-22T03:50:19.253Z,51.60
2018-06-22T03:55:17.176Z,50.70
2018-06-22T03:57:45.661Z,51.00
2018-06-22T04:00:14.372Z,51.10
2018-06-22T04:05:10.846Z,50.90
2018-06-22T04:10:06.487Z,51.00
2018-06-22T04:12:34.716Z,51.80
2018-06-22T04:15:02.277Z,51.10
2018-06-22T04:17:30.381Z,51.90
2018-06-22T04:19:57.860Z,52.80
2018-06-22T04:22:25.406Z,51.90
2018-06-22T04:24:53.830Z,52.70
2018-06-22T04:27:21.636Z,53.40
2018-06-22T04:32:17.740Z,51.70
2018-06-22T04:34:45.956Z,52.60
2018-06-22T04:37:13.799Z,52.20
2018-06-22T04:39:41.297Z,51.90
2018-06-22T04:42:09.037Z,52.40
2018-06-22T04:44:36.600Z,51.90
2018-06-22T04:47:04.690Z,50.70
2018-06-22T04:49:32.212Z,52.30
2018-06-22T04:52:00.512Z,51.80
2018-06-22T04:54:28.043Z,51.10
2018-06-22T04:56:55.651Z,50.30
2018-06-22T04:59:23.247Z,51.00
2018-06-22T05:01:51.561Z,49.80
2018-06-22T05:04:19.219Z,50.60
2018-06-22T05:06:48.943Z,50.10
2018-06-22T05:09:16.501Z,49.20
2018-06-22T05:11:44.027Z,49.80
2018-06-22T05:14:12.987Z,49.90
2018-06-22T05:16:40.595Z,51.00
2018-06-22T05:19:09.638Z,49.40
2018-06-22T05:21:37.261Z,49.60
2018-06-22T05:24:06.116Z,49.30
2018-06-22T05:26:34.422Z,48.50
2018-06-22T05:29:04.128Z,49.00
2018-06-22T05:31:32.244Z,47.80
2018-06-22T05:34:00.986Z,50.00
2018-06-22T05:36:28.643Z,48.70
2018-06-22T05:38:56.270Z,47.70
2018-06-22T05:41:24.508Z,47.50
2018-06-22T05:43:52.886Z,48.20
2018-06-22T05:46:21.501Z,46.40
2018-06-22T05:48:49.501Z,46.80
2018-06-22T05:51:17.794Z,45.50
2018-06-22T05:53:46.289Z,45.80
2018-06-22T05:56:14.554Z,45.80
2018-06-22T05:58:42.060Z,44.70
2018-06-22T06:01:09.712Z,45.90
2018-06-22T06:03:37.270Z,44.70
2018-06-22T06:06:05.045Z,45.00
2018-06-22T06:08:33.071Z,46.00
2018-06-22T06:11:00.828Z,45.40
2018-06-22T06:13:28.541Z,44.90
2018-06-22T06:15:56.181Z,44.20
2018-06-22T06:18:23.676Z,44.80
2018-06-22T06:20:51.204Z,44.70
2018-06-22T06:23:19.434Z,44.10
2018-06-22T06:25:46.972Z,44.70
2018-06-22T06:28:14.506Z,45.70
2018-06-22T06:30:42.901Z,44.60
2018-06-22T06:33:11.679Z,45.00
2018-06-22T06:35:39.362Z,44.40
2018-06-22T06:38:07.964Z,45.20
2018-06-22T06:40:36.151Z,45.20
2018-06-22T06:43:03.977Z,45.30
2018-06-22T06:45:31.542Z,44.70
2018-06-22T06:50:27.585Z,45.40
2018-06-22T06:55:22.706Z,44.40
2018-06-22T06:57:53.561Z,45.10
2018-06-22T07:02:48.799Z,45.20
2018-06-22T07:05:16.878Z,45.70
2018-06-22T07:07:44.445Z,47.30
2018-06-22T07:10:12.220Z,48.80
2018-06-22T07:12:39.781Z,45.60
2018-06-22T07:15:07.598Z,46.80
2018-06-22T07:17:35.983Z,48.00
2018-06-22T07:20:04.742Z,47.50
2018-06-22T07:22:32.961Z,47.10
2018-06-22T07:25:00.621Z,47.10
2018-06-22T07:27:28.141Z,46.70
2018-06-22T07:29:56.415Z,47.90
2018-06-22T07:32:23.971Z,47.90
2018-06-22T07:34:51.473Z,46.40
2018-06-22T07:37:19.103Z,48.90
2018-06-22T07:39:46.839Z,47.10
2018-06-22T07:42:15.450Z,47.60
2018-06-22T07:47:12.278Z,47.70
2018-06-22T07:49:41.164Z,47.50
2018-06-22T07:52:09.988Z,47.50
2018-06-22T07:54:37.672Z,47.00
2018-06-22T07:57:05.830Z,46.80
2018-06-22T07:59:33.409Z,48.20
2018-06-22T08:02:01.649Z,49.00
2018-06-22T08:04:29.658Z,48.70
2018-06-22T08:06:57.801Z,48.90
2018-06-22T08:11:54.719Z,48.90
2018-06-22T08:14:22.254Z,48.80
2018-06-22T08:16:49.892Z,47.20
2018-06-22T08:19:19.186Z,47.80
2018-06-22T08:21:46.711Z,47.40
2018-06-22T08:24:14.368Z,47.10
2018-06-22T08:26:41.919Z,47.70
2018-06-22T08:29:09.552Z,47.40
2018-06-22T08:31:37.052Z,47.50
2018-06-22T08:34:04.758Z,47.30
2018-06-22T08:36:32.488Z,47.20
2018-06-22T08:39:00.753Z,48.30
2018-06-22T08:41:28.564Z,48.30
2018-06-22T08:43:56.131Z,46.30
2018-06-22T08:46:24.601Z,46.80
2018-06-22T08:48:52.807Z,47.00
2018-06-22T08:51:20.252Z,47.50
2018-06-22T08:56:16.020Z,47.70
2018-06-22T08:58:44.924Z,46.80
2018-06-22T09:01:12.569Z,45.90
2018-06-22T09:03:41.713Z,43.70
2018-06-22T09:06:09.390Z,45.20
2018-06-22T09:08:37.208Z,45.10
2018-06-22T09:11:04.820Z,44.50
2018-06-22T09:13:32.525Z,45.40
2018-06-22T09:16:00.552Z,46.90
2018-06-22T09:18:29.618Z,46.40
2018-06-22T09:20:57.847Z,46.40
2018-06-22T09:23:25.461Z,46.40
2018-06-22T09:25:53.138Z,47.50
2018-06-22T09:28:20.673Z,47.00
2018-06-22T09:30:48.582Z,46.70
2018-06-22T09:33:16.876Z,48.00
2018-06-22T09:35:45.368Z,47.80
2018-06-22T09:38:14.275Z,47.50
2018-06-22T09:40:41.970Z,46.30
2018-06-22T09:43:09.598Z,46.90
2018-06-22T09:48:06.887Z,47.20
2018-06-22T09:50:34.498Z,46.70
2018-06-22T09:53:03.108Z,46.10
2018-06-22T09:57:59.176Z,46.50
2018-06-22T10:00:27.624Z,46.70
2018-06-22T10:02:58.515Z,47.10
2018-06-22T10:05:26.205Z,49.70
2018-06-22T10:07:54.329Z,47.50
2018-06-22T10:10:22.609Z,46.50
2018-06-22T10:12:50.486Z,48.50
2018-06-22T10:15:18.829Z,49.10
2018-06-22T10:17:47.331Z,48.20
2018-06-22T10:20:14.869Z,47.20
2018-06-22T10:22:43.500Z,46.40
2018-06-22T10:25:13.056Z,46.40
2018-06-22T10:32:35.660Z,47.20
2018-06-22T10:37:33.836Z,48.10
2018-06-22T10:42:29.159Z,48.00
2018-06-22T10:47:25.746Z,49.40
2018-06-22T10:49:54.910Z,50.10
2018-06-22T10:54:51.180Z,50.00
2018-06-22T10:57:19.722Z,47.60
2018-06-22T10:59:48.213Z,48.90
2018-06-22T11:02:16.213Z,48.70
2018-06-22T11:04:43.931Z,47.80
2018-06-22T11:07:12.281Z,47.80
2018-06-22T11:09:44.308Z,49.10
2018-06-22T11:12:12.129Z,48.40
2018-06-22T11:14:39.827Z,46.90
2018-06-22T11:19:36.562Z,48.10
2018-06-22T11:22:04.350Z,47.70
2018-06-22T11:26:59.553Z,49.70
2018-06-22T11:31:55.756Z,47.80
2018-06-22T11:34:24.428Z,48.10
2018-06-22T11:36:53.470Z,50.30
2018-06-22T11:39:21.829Z,51.70
2018-06-22T11:41:50.137Z,50.30
2018-06-22T11:44:18.430Z,47.70
2018-06-22T11:49:14.071Z,49.50
2018-06-22T11:51:42.242Z,46.90
2018-06-22T11:54:11.787Z,46.30
2018-06-22T11:56:39.491Z,46.80
2018-06-22T11:59:07.008Z,48.30
2018-06-22T12:01:35.814Z,47.80
2018-06-22T12:04:03.878Z,47.60
2018-06-22T12:06:31.554Z,48.10
2018-06-22T12:08:59.240Z,47.60
2018-06-22T12:13:54.932Z,47.90
2018-06-22T12:16:22.647Z,47.80
2018-06-22T12:18:50.248Z,48.40
2018-06-22T12:21:17.924Z,48.10
2018-06-22T12:23:45.639Z,48.70
2018-06-22T12:26:13.277Z,48.70
2018-06-22T12:28:41.334Z,47.40
2018-06-22T12:31:09.520Z,46.70
2018-06-22T12:33:38.193Z,48.20
2018-06-22T12:36:06.334Z,46.70
2018-06-22T12:38:34.216Z,46.20
2018-06-22T12:41:01.848Z,46.20
2018-06-22T12:45:57.348Z,46.40
2018-06-22T12:48:25.074Z,45.40
2018-06-22T12:50:52.659Z,60.50
2018-06-22T12:55:51.643Z,47.80
2018-06-22T13:00:47.894Z,44.40
2018-06-22T13:03:16.316Z,46.50
2018-06-22T13:08:13.447Z,48.20
2018-06-22T13:10:41.368Z,48.30
2018-06-22T13:15:39.377Z,46.60
2018-06-22T13:18:07.732Z,47.00
2018-06-22T13:20:35.935Z,45.30
2018-06-22T13:23:03.618Z,45.90
2018-06-22T13:25:31.346Z,46.00
2018-06-22T13:30:27.201Z,45.60
2018-06-22T13:37:54.815Z,46.70
2018-06-22T13:40:24.318Z,46.80
2018-06-22T13:42:53.708Z,44.40
2018-06-22T13:45:21.864Z,44.40
2018-06-22T13:50:20.754Z,44.40
2018-06-22T14:02:34.599Z,44.70
2018-06-22T14:05:11.347Z,43.20
2018-06-22T14:07:40.024Z,42.10
2018-06-22T14:10:10.038Z,42.70
2018-06-22T14:15:05.853Z,44.00
2018-06-22T14:17:33.596Z,43.10
2018-06-22T14:20:01.166Z,43.70
2018-06-22T14:22:28.822Z,42.10
2018-06-22T14:24:58.144Z,44.50
2018-06-22T14:27:26.661Z,43.90
2018-06-22T14:29:55.148Z,45.50
2018-06-22T14:32:23.504Z,45.50
2018-06-22T14:34:51.389Z,44.30
2018-06-22T14:37:19.397Z,43.70
2018-06-22T14:39:47.720Z,43.00
2018-06-22T14:42:16.232Z,46.10
2018-06-22T14:44:44.496Z,44.50
2018-06-22T14:47:12.125Z,43.20
2018-06-22T14:49:40.659Z,46.30
2018-06-22T14:52:08.408Z,43.00
2018-06-22T14:55:42.619Z,43.60
2018-06-22T14:58:15.915Z,42.60
2018-06-22T15:00:49.749Z,43.70
2018-06-22T15:03:24.009Z,44.10
2018-06-22T15:05:57.933Z,44.60
2018-06-22T15:18:16.320Z,44.40
2018-06-22T15:20:44.526Z,47.20
2018-06-22T15:23:13.781Z,48.00
2018-06-22T15:25:41.376Z,44.60
2018-06-22T15:28:09.026Z,45.20
2018-06-22T15:30:37.285Z,44.80
2018-06-22T15:33:10.984Z,45.20
2018-06-22T15:35:44.405Z,43.30
2018-06-22T15:38:17.754Z,44.30
2018-06-22T15:43:24.352Z,43.90
2018-06-22T15:45:57.662Z,44.90
2018-06-22T15:48:30.791Z,43.90
2018-06-22T15:51:03.950Z,43.50
2018-06-22T15:53:37.918Z,43.60
2018-06-22T15:58:36.304Z,45.20
2018-06-22T16:01:05.057Z,45.50
2018-06-22T16:03:39.013Z,45.10
2018-06-22T16:06:07.561Z,44.60
2018-06-22T16:08:35.218Z,45.60
2018-06-22T16:11:02.960Z,45.20
2018-06-22T16:13:31.441Z,44.60
2018-06-22T16:16:04.584Z,46.20
2018-06-22T16:18:39.376Z,45.70
2018-06-22T16:21:12.568Z,46.00
2018-06-22T16:24:49.610Z,45.10
2018-06-22T16:27:17.192Z,46.20
2018-06-22T16:29:45.371Z,46.20
2018-06-22T16:32:13.477Z,46.00
2018-06-22T16:34:41.657Z,45.40
2018-06-22T16:37:10.110Z,45.10
2018-06-22T16:39:37.722Z,44.60
2018-06-22T16:42:05.309Z,45.50
2018-06-22T16:44:34.341Z,45.50
2018-06-22T16:47:01.915Z,44.30
2018-06-22T16:49:29.639Z,44.40
2018-06-22T16:51:57.510Z,45.30
2018-06-22T16:54:26.396Z,45.90
2018-06-22T16:56:54.615Z,45.70
2018-06-22T16:59:23.332Z,45.30
2018-06-22T17:01:51.088Z,45.80
2018-06-22T17:04:18.759Z,45.50
2018-06-22T17:06:52.205Z,47.50
2018-06-22T17:09:25.737Z,50.20
2018-06-22T17:12:00.407Z,45.30
2018-06-22T17:18:04.503Z,67.80
2018-06-22T17:20:32.327Z,64.40
2018-06-22T17:22:59.927Z,56.30
2018-06-22T17:25:28.206Z,55.80
2018-06-22T17:27:55.748Z,57.60
2018-06-22T17:30:24.169Z,56.40
2018-06-22T17:32:52.278Z,55.80
2018-06-22T17:35:21.861Z,51.00
2018-06-22T17:37:53.818Z,50.30
2018-06-22T17:40:21.466Z,49.60
2018-06-22T17:42:50.994Z,48.50
2018-06-22T17:45:20.267Z,48.40
2018-06-22T17:47:48.368Z,49.60
2018-06-22T17:50:22.228Z,48.50
2018-06-22T17:52:50.569Z,48.10
2018-06-22T17:57:48.832Z,48.40
2018-06-22T18:00:22.027Z,48.50
2018-06-22T18:08:01.686Z,47.00
2018-06-22T18:10:35.049Z,48.40
2018-06-22T18:13:10.750Z,48.60
2018-06-22T18:15:39.968Z,48.70
2018-06-22T18:18:08.224Z,47.20
2018-06-22T18:20:37.685Z,47.30
2018-06-22T18:23:05.327Z,47.30
2018-06-22T18:25:34.436Z,47.50
2018-06-22T18:37:52.153Z,48.30
2018-06-22T18:40:19.754Z,50.80
2018-06-22T18:42:48.786Z,49.40
2018-06-22T18:45:16.418Z,48.90
2018-06-22T18:47:44.709Z,49.60
2018-06-22T18:50:12.986Z,49.50
2018-06-22T18:52:46.293Z,49.80
2018-06-22T18:55:19.463Z,50.70
2018-06-22T19:00:27.610Z,50.60
2018-06-22T19:03:00.878Z,49.70
2018-06-22T19:05:28.506Z,52.00
2018-06-22T19:07:56.042Z,49.50
2018-06-22T19:10:23.705Z,50.10
2018-06-22T19:12:51.332Z,51.00
2018-06-22T19:15:19.643Z,50.00
2018-06-22T19:17:48.940Z,50.50
2018-06-22T19:20:16.515Z,49.80
2018-06-22T19:22:44.142Z,50.10
2018-06-22T19:25:11.706Z,50.60
2018-06-22T19:27:39.284Z,50.90
2018-06-22T19:30:07.668Z,51.10
2018-06-22T19:32:35.252Z,51.40
2018-06-22T19:35:08.842Z,51.40
2018-06-22T19:37:36.379Z,51.50
2018-06-22T19:42:32.901Z,50.70
2018-06-22T19:45:07.490Z,50.80
2018-06-22T19:47:40.797Z,51.00
2018-06-22T19:50:14.953Z,51.70
2018-06-22T19:55:17.117Z,51.30
2018-06-22T19:57:45.751Z,51.50
2018-06-22T20:00:14.061Z,51.10
2018-06-22T20:02:41.697Z,51.30
2018-06-22T20:15:00.155Z,52.30
2018-06-22T20:17:28.473Z,52.40
2018-06-22T20:19:56.478Z,52.10
2018-06-22T20:22:24.193Z,52.60
2018-06-22T20:24:59.373Z,52.60
2018-06-22T20:27:26.978Z,52.70
2018-06-22T20:29:54.753Z,53.10
2018-06-22T20:32:22.316Z,53.90
2018-06-22T20:34:55.539Z,53.60
2018-06-22T20:37:29.770Z,53.30
2018-06-22T20:40:05.337Z,52.70
2018-06-22T20:42:38.564Z,52.90
2018-06-22T20:45:12.655Z,53.10
2018-06-22T20:47:46.020Z,53.10
2018-06-22T20:50:19.757Z,53.30
2018-06-22T20:52:48.448Z,53.60
2018-06-22T20:55:17.554Z,54.00
2018-06-22T20:57:45.385Z,54.00
2018-06-22T21:00:16.276Z,54.30
2018-06-22T21:02:43.945Z,53.70
2018-06-22T21:05:12.088Z,54.20
2018-06-22T21:07:39.736Z,54.20
2018-06-22T21:10:08.450Z,54.90
2018-06-22T21:12:40.418Z,55.20
2018-06-22T21:15:04.788Z,54.10
2018-06-22T21:17:32.572Z,55.00
2018-06-22T21:20:00.201Z,55.20
2018-06-22T21:22:27.735Z,55.00
2018-06-22T21:24:55.493Z,55.20
2018-06-22T21:27:28.784Z,54.50
2018-06-22T21:30:02.051Z,55.10
2018-06-22T21:32:36.319Z,55.10
2018-06-22T21:35:09.588Z,54.50
2018-06-22T21:37:42.853Z,55.10
2018-06-22T21:40:10.436Z,54.50
2018-06-22T21:42:38.139Z,54.90
2018-06-22T21:45:05.770Z,55.50
2018-06-22T21:47:33.731Z,55.40
2018-06-22T21:50:01.440Z,56.00
2018-06-22T21:52:30.144Z,55.60
2018-06-22T21:54:58.208Z,55.10
2018-06-22T21:57:26.143Z,55.00
2018-06-22T21:59:54.086Z,55.30
2018-06-22T22:02:22.266Z,56.20
2018-06-22T22:04:50.952Z,56.20
2018-06-22T22:07:19.348Z,56.40
2018-06-22T22:09:46.899Z,56.40
2018-06-22T22:12:14.512Z,56.80
2018-06-22T22:14:42.045Z,55.70
2018-06-22T22:17:10.447Z,55.50
2018-06-22T22:19:39.062Z,55.60
2018-06-22T22:22:09.086Z,55.50
2018-06-22T22:24:36.705Z,56.90
2018-06-22T22:27:05.115Z,56.30
2018-06-22T22:32:01.199Z,55.90
2018-06-22T22:34:29.432Z,56.00
2018-06-22T22:36:58.237Z,55.50
2018-06-22T22:39:25.868Z,55.90
2018-06-22T22:41:53.639Z,55.60
2018-06-22T22:44:21.309Z,56.00
2018-06-22T22:46:48.847Z,56.70
2018-06-22T22:49:16.465Z,57.00
2018-06-22T22:51:44.065Z,56.70
2018-06-22T22:54:12.237Z,56.80
2018-06-22T22:56:39.746Z,57.00
2018-06-22T22:59:08.020Z,57.70
2018-06-22T23:01:35.591Z,57.20
2018-06-22T23:04:03.135Z,57.80
2018-06-22T23:08:58.548Z,57.30
2018-06-22T23:11:26.551Z,57.80
2018-06-22T23:13:55.211Z,57.60
2018-06-22T23:16:24.381Z,57.70
2018-06-22T23:18:53.401Z,57.70
2018-06-22T23:23:48.480Z,57.30
2018-06-22T23:26:16.141Z,57.10
2018-06-22T23:28:43.770Z,57.30
2018-06-22T23:31:12.401Z,57.30
2018-06-22T23:33:40.758Z,57.70
2018-06-22T23:36:08.334Z,57.60
2018-06-22T23:38:35.877Z,58.10
2018-06-22T23:41:04.705Z,58.50
2018-06-22T23:43:34.001Z,58.20
2018-06-22T23:46:03.170Z,57.70
2018-06-22T23:48:30.753Z,57.70
2018-06-22T23:50:58.508Z,58.10
2018-06-22T23:53:26.357Z,57.70
2018-06-22T23:55:54.598Z,57.70
2018-06-22T23:58:23.317Z,57.70
